Latest Coastal Weather Observations for Tasman Island

IDT60701

Issued at 12:55 am EDT Friday 31 October 2014 (issued every 10 minutes, with the page automatically refreshed every 10 minutes)

About coastal observations | Map of coastal stations | Coastal observations for TAS | Marine services | Other Formats
Station Details ID: 094155 Name: TASMAN ISLAND Lat: -43.24 Lon: 148.00 Height: 240.0 m
Data from the previous 72 hours. | See also: Recent months at Tasman Island
Date/Time
EDT
Temp

°C
Wind Pressure Rain
since 9am
mm
Weather Cloud Vis
km
Sea
Height
m
Swell
Dir
 
Speed
knots
Gust
knots
hPa Trend Height
m
Period
s
Dir
31/12:30am 10.9 NW 13 18 1008.0 - 1.8 - - - - - - -
31/12:00am 10.5 NNW 9 13 1008.1 - 1.8 - - - - - - -
 
Date/Time
EDT
Temp

°C
Wind Pressure Rain
since 9am
mm
Weather Cloud Vis
km
Sea
Height
m
Swell
Dir
 
Speed
knots
Gust
knots
hPa Trend Height
m
Period
s
Dir
30/11:30pm 10.7 NW 7 10 1008.3 - 1.8 - - - - - - -
30/11:00pm 10.4 NW 6 9 1008.3 - 1.8 - - - - - - -
30/10:30pm 9.9 NNW 5 15 1008.5 - 1.8 - - - - - - -
30/10:00pm 9.8 NNE 7 11 1008.8 - 1.8 - - - - - - -
30/09:30pm 9.6 N 5 8 1008.8 - 1.8 - - - - - - -
30/09:00pm 9.6 N 5 9 1009.0 - 1.8 - - - - - - -
30/08:30pm 9.7 W 3 9 1008.4 - 1.8 - - - - - - -
30/08:00pm 9.7 E 3 9 1008.3 - 1.8 - - - - - - -
30/07:30pm 9.7 S 5 16 1008.0 - 1.8 - - - - - - -
30/07:00pm 9.8 E 5 12 1007.7 - 1.8 - - - - - - -
30/06:30pm 10.0 W 6 14 1007.5 - 1.8 - - - - - - -
30/06:00pm 9.8 WSW 6 16 1007.4 - 1.8 - - - - - - -
30/05:30pm 9.7 SW 8 18 1007.5 - 1.8 - - - - - - -
30/05:00pm 9.7 SSW 10 21 1007.4 - 1.8 - - - - - - -
30/04:30pm 9.4 SW 14 23 1007.3 - 1.8 - - - - - - -
30/04:00pm 9.1 SW 14 23 1007.3 - 1.8 - - - - - - -
30/03:30pm 8.9 SSW 13 24 1007.4 - 1.6 - - - - - - -
30/03:18pm 9.2 SSW 15 26 1007.2 - 1.4 - - - - - - -
30/03:00pm 9.6 S 9 22 1007.0 - 1.4 - - - - - - -
30/02:30pm 9.9 SSW 13 27 1007.1 - 1.4 - - - - - - -
30/02:00pm 9.6 SSW 13 23 1007.3 - 1.4 - - - - - - -
30/01:30pm 9.4 SSW 11 21 1007.1 - 1.4 - - - - - - -
30/01:00pm 9.2 SW 11 25 1007.3 - 1.4 - - - - - - -
30/12:30pm 9.1 SW 10 25 1007.4 - 1.4 - - - - - - -
30/12:00pm 8.6 SW 7 17 1007.6 - 1.2 Rain - - - - - -
30/11:30am 8.0 SW 16 28 1007.5 - 0.8 - - - - - - -
30/11:06am 8.2 SSW 15 26 1007.6 - 0.6 - - - - - - -
30/11:00am 8.4 SSW 11 28 1007.7 - 0.2 - - - - - - -
30/10:30am 8.2 SSW 9 20 1007.7 - 0.0 - - - - - - -
30/10:00am 8.3 SW 14 20 1007.6 - 0.0 - - - - - - -
30/09:30am 8.5 SW 17 27 1007.1 - 0.0 - - - - - - -
30/09:00am 8.8 SSW 15 28 1007.0 - 1.8 Recent precip. - - - - - -
30/08:44am 8.7 SW 15 29 1007.1 - 1.8 - - - - - - -
30/08:30am 8.8 SW 16 24 1007.1 - 1.8 - - - - - - -
30/08:05am 8.8 SW 16 27 1006.9 - 1.6 - - - - - - -
30/08:00am 8.9 SW 15 23 1006.9 - 1.6 - - - - - - -
30/07:30am 8.9 SW 13 25 1006.7 - 0.8 - - - - - - -
30/07:00am 9.6 SSW 6 18 1006.4 - 0.0 - - - - - - -
30/06:30am 10.8 NW 4 11 1006.1 - 0.0 - - - - - - -
30/06:00am 10.4 W 8 14 1005.5 - 0.0 - - - - - - -
30/05:30am 10.1 W 7 16 1005.3 - 0.0 - - - - - - -
30/05:00am 10.9 W 7 21 1005.4 - 0.0 - - - - - - -
30/04:30am 11.1 W 6 21 1005.5 - 0.0 - - - - - - -
30/04:00am 11.1 WNW 7 17 1005.5 - 0.0 - - - - - - -
30/03:30am 11.0 WNW 5 22 1005.3 - 0.0 - - - - - - -
30/03:00am 10.8 W 6 15 1005.6 - 0.0 - - - - - - -
30/02:30am 11.1 W 4 12 1005.6 - 0.0 - - - - - - -
30/02:00am 11.2 SSW 4 14 1005.5 - 0.0 - - - - - - -
30/01:30am 11.4 W 6 14 1005.8 - 0.0 - - - - - - -
30/01:00am 11.0 WNW 11 19 1006.0 - 0.0 - - - - - - -
30/12:30am 11.2 WNW 5 14 1006.1 - 0.0 - - - - - - -
30/12:00am 11.4 NW 8 17 1005.9 - 0.0 - - - - - - -
 
Date/Time
EDT
Temp

°C
Wind Pressure Rain
since 9am
mm
Weather Cloud Vis
km
Sea
Height
m
Swell
Dir
 
Speed
knots
Gust
knots
hPa Trend Height
m
Period
s
Dir
29/11:30pm 11.5 ENE 5 13 1006.4 - 0.0 - - - - - - -
29/11:00pm 11.8 NW 5 22 1006.2 - 0.0 - - - - - - -
29/10:30pm 12.0 W 9 22 1005.9 - 0.0 - - - - - - -
29/10:00pm 12.4 SW 4 14 1006.4 - 0.0 - - - - - - -
29/09:30pm 12.7 WNW 9 29 1006.1 - 0.0 - - - - - - -
29/09:00pm 13.0 WNW 13 29 1005.9 - 0.0 - - - - - - -
29/08:30pm 13.2 WNW 12 32 1005.7 - 0.0 - - - - - - -
29/08:00pm 13.3 NW 13 30 1005.4 - 0.0 - - - - - - -
29/07:51pm 13.3 NW 16 30 1005.3 - 0.0 - - - - - - -
29/07:30pm 13.4 NNW 7 20 1005.1 - 0.0 - - - - - - -
29/07:00pm 14.1 W 10 30 1004.7 - 0.0 - - - - - - -
29/06:30pm 14.6 W 14 28 1004.7 - 0.0 - - - - - - -
29/06:00pm 14.8 WNW 15 31 1004.8 - 0.0 - - - - - - -
29/05:56pm 14.7 W 15 31 1004.6 - 0.0 - - - - - - -
29/05:30pm 15.1 W 11 23 1004.4 - 0.0 - - - - - - -
29/05:00pm 15.1 WNW 11 31 1005.4 - 0.0 - - - - - - -
29/04:30pm 15.1 WNW 9 22 1005.2 - 0.0 - - - - - - -
29/04:00pm 14.9 WNW 8 21 1005.1 - 0.0 - - - - - - -
29/03:30pm 15.2 WNW 6 27 1005.1 - 0.0 - - - - - - -
29/03:00pm 15.5 W 11 28 1005.3 - 0.0 - - - - - - -
29/02:33pm 15.4 NW 15 34 1005.6 - 0.0 - - - - - - -
29/02:30pm 15.3 NW 13 34 1005.6 - 0.0 - - - - - - -
29/02:09pm 14.9 WNW 15 32 1005.8 - 0.0 - - - - - - -
29/02:00pm 14.9 WNW 8 24 1005.9 - 0.0 - - - - - - -
29/01:30pm 13.6 NW 22 32 1006.3 - 0.0 - - - - - - -
29/01:01pm 13.4 NW 20 31 1006.5 - 0.0 - - - - - - -
29/01:00pm 13.4 NW 22 31 1006.6 - 0.0 - - - - - - -
29/12:50pm 13.7 NW 18 34 1006.8 - 0.0 - - - - - - -
29/12:30pm 14.2 WNW 16 22 1007.1 - 0.0 - - - - - - -
29/12:20pm 13.8 NW 17 27 1007.2 - 0.0 - - - - - - -
29/12:00pm 13.3 WNW 18 27 1007.2 - 0.0 - - - - - - -
29/11:30am 12.4 NW 19 27 1007.7 - 0.0 - - - - - - -
29/11:22am 11.0 NW 18 27 1007.9 - 0.0 - - - - - - -
29/11:00am 11.0 NW 8 14 1008.3 - 0.0 - - - - - - -
29/10:30am 10.4 NW 21 28 1008.3 - 0.0 - - - - - - -
29/10:13am 10.4 NW 17 27 1008.4 - 0.0 - - - - - - -
29/10:00am 10.2 NW 18 26 1008.4 - 0.0 - - - - - - -
29/09:30am 9.8 WNW 12 19 1008.7 - 0.0 - - - - - - -
29/09:00am 9.1 NW 16 22 1008.5 - 5.4 - - - - - - -
29/08:30am 9.6 WNW 14 22 1008.4 - 5.4 - - - - - - -
29/08:00am 8.4 NW 15 21 1008.4 - 5.4 - - - - - - -
29/07:30am 8.4 WNW 10 21 1008.1 - 5.4 - - - - - - -
29/07:00am 7.5 WNW 7 19 1008.2 - 5.4 - - - - - - -
29/06:30am 7.5 WNW 9 19 1008.0 - 5.4 - - - - - - -
29/06:00am 7.5 NE 5 19 1007.3 - 5.4 - - - - - - -
29/05:30am 7.6 WSW 7 19 1006.7 - 5.4 - - - - - - -
29/05:00am 7.6 N 7 25 1006.3 - 5.4 - - - - - - -
29/04:30am 7.6 NE 7 17 1005.9 - 5.4 - - - - - - -
29/04:04am 7.9 WSW 15 36 1005.5 - 5.4 - - - - - - -
29/04:00am 8.0 W 14 33 1005.4 - 5.4 - - - - - - -
29/03:30am 7.8 WSW 19 41 1004.5 - 5.4 - - - - - - -
29/03:13am 7.7 WSW 18 45 1004.5 - 5.4 - - - - - - -
29/03:00am 7.4 WSW 15 30 1005.1 - 5.4 - - - - - - -
29/02:59am 7.4 WSW 17 30 1005.2 - 5.4 - - - - - - -
29/02:30am 7.0 W 12 33 1005.2 - 5.4 - - - - - - -
29/02:01am 6.6 W 15 44 1004.9 - 5.4 - - - - - - -
29/02:00am 6.5 WSW 12 44 1004.8 - 5.4 - - - - - - -
29/01:40am 6.8 SSE 9 22 1004.5 - 5.2 - - - - - - -
29/01:30am 6.6 WSW 23 51 1004.2 - 5.2 - - - - - - -
29/01:20am 5.7 WSW 27 48 1004.4 - 5.2 - - - - - - -
29/01:15am 7.4 SW 15 36 1004.0 - 5.0 - - - - - - -
29/01:00am 7.2 E 7 16 1004.5 - 5.0 - - - - - - -
29/12:51am 7.7 SSW 8 23 1004.6 - 5.0 - - - - - - -
29/12:30am 7.6 WSW 21 43 1004.1 - 5.0 - - - - - - -
29/12:21am 7.5 WSW 15 39 1003.7 - 5.0 - - - - - - -
29/12:15am 7.6 SW 15 28 1003.6 - 5.0 - - - - - - -
29/12:14am 7.6 WNW 13 28 1003.6 - 5.0 - - - - - - -
29/12:00am 6.7 WSW 21 39 1003.5 - 5.0 Recent precip. - - - - - -
 
Date/Time
EDT
Temp

°C
Wind Pressure Rain
since 9am
mm
Weather Cloud Vis
km
Sea
Height
m
Swell
Dir
 
Speed
knots
Gust
knots
hPa Trend Height
m
Period
s
Dir
28/11:53pm 6.3 SW 19 37 1003.3 - 5.0 - - - - - - -
28/11:37pm 6.1 SW 31 45 1002.7 - 5.0 - - - - - - -
28/11:36pm 6.3 SW 15 45 1002.7 - 5.0 - - - - - - -
28/11:30pm 7.2 SW 13 34 1002.4 - 5.0 - - - - - - -
28/11:19pm 7.1 W 16 32 1002.1 - 5.0 - - - - - - -
28/11:00pm 5.6 WSW 25 44 1001.3 - 4.8 - - - - - - -
28/10:44pm 5.8 SW 23 43 1001.3 - 4.2 - - - - - - -
28/10:39pm 6.9 W 18 43 1001.4 - 4.0 - - - - - - -
28/10:30pm 6.4 WSW 13 42 1000.9 - 4.0 - - - - - - -
28/10:00pm 7.1 W 15 41 1000.2 - 3.4 - - - - - - -
28/09:31pm 7.6 W 15 43 999.5 - 3.2 - - - - - - -
28/09:30pm 7.5 W 14 39 999.4 - 3.2 - - - - - - -
28/09:00pm 6.6 W 16 49 998.8 - 3.2 Recent precip. - - - - - -
28/08:30pm 6.6 WSW 15 43 997.9 - 3.2 - - - - - - -
28/08:00pm 6.6 WSW 25 58 996.6 - 2.0 - - - - - - -
28/07:57pm 7.0 WSW 22 58 996.2 - 2.0 - - - - - - -
28/07:55pm 7.1 WSW 18 41 996.2 - 1.8 - - - - - - -
28/07:46pm 8.3 N 21 50 996.1 - 1.8 - - - - - - -
28/07:30pm 8.2 WSW 18 41 995.2 - 1.8 - - - - - - -
28/07:14pm 8.0 WSW 16 43 995.4 - 1.8 - - - - - - -
28/07:00pm 6.9 S 8 25 994.9 - 1.6 - - - - - - -
28/06:58pm 6.7 NW 14 32 994.4 - 1.6 - - - - - - -
28/06:54pm 6.7 WSW 28 55 994.6 - 1.6 - - - - - - -
28/06:53pm 7.2 W 20 50 994.4 - 1.4 - - - - - - -
28/06:35pm 8.3 NNW 15 39 994.1 - 1.4 - - - - - - -
28/06:30pm 7.8 W 10 28 994.0 - 1.4 - - - - - - -
28/06:22pm 7.5 NW 15 37 993.6 - 1.4 - - - - - - -
28/06:00pm 8.3 NW 11 34 992.9 - 1.4 - - - - - - -
28/05:30pm 8.6 WSW 11 39 992.5 - 1.4 - - - - - - -
28/05:00pm 8.3 S 11 27 992.4 - 1.4 - - - - - - -
28/04:49pm 9.1 NW 15 50 992.1 - 1.4 - - - - - - -
28/04:30pm 9.0 WNW 11 33 991.5 - 1.4 - - - - - - -
28/04:22pm 8.9 NW 15 36 991.9 - 1.4 - - - - - - -
28/04:00pm 8.7 WNW 12 34 992.1 - 1.4 - - - - - - -
28/03:30pm 7.8 NNW 11 28 991.9 - 1.4 - - - - - - -
28/03:28pm 7.1 W 9 40 991.6 - 1.4 - - - - - - -
28/03:19pm 7.3 WSW 22 52 992.1 - 1.4 - - - - - - -
28/03:17pm 7.9 SSW 15 51 992.1 - 1.4 - - - - - - -
28/03:00pm 8.8 W 8 35 992.1 - 1.4 Recent precip. - - - - - -
28/02:30pm 6.9 W 19 35 991.7 - 1.4 - - - - - - -
28/02:09pm 4.9 WNW 16 37 991.8 - 1.4 - - - - - - -
28/02:00pm 5.8 W 11 30 991.8 - 0.8 - - - - - - -
28/01:53pm 6.2 WSW 17 36 991.6 - 0.6 - - - - - - -
28/01:51pm 6.1 ESE 12 29 991.1 - 0.6 - - - - - - -
28/01:33pm 7.0 WSW 23 40 991.7 - 0.4 - - - - - - -
28/01:30pm 7.6 WSW 8 21 992.0 - 0.4 - - - - - - -
28/01:07pm 7.4 W 11 34 991.6 - 0.4 - - - - - - -
28/01:04pm 7.4 NW 27 44 991.6 - 0.4 - - - - - - -
28/01:00pm 7.6 NW 11 31 991.1 - 0.4 - - - - - - -
28/12:50pm 7.3 NNW 15 36 990.7 - 0.4 - - - - - - -
28/12:30pm 7.0 S 7 22 991.2 - 0.4 - - - - - - -
28/12:00pm 7.9 NW 10 24 990.9 - 0.2 - - - - - - -
28/11:30am 7.4 W 8 31 991.2 - 0.2 - - - - - - -
28/11:05am 6.8 NW 16 30 991.2 - 0.2 - - - - - - -
28/11:00am 6.7 NW 13 31 991.1 - 0.2 - - - - - - -
28/10:40am 6.9 W 15 33 990.8 - 0.2 - - - - - - -
28/10:30am 7.0 WNW 12 34 991.2 - 0.2 - - - - - - -
28/10:05am 5.9 WNW 15 31 991.2 - 0.2 - - - - - - -
28/10:00am 5.8 WNW 14 31 991.1 - 0.2 - - - - - - -
28/09:37am 5.0 WNW 16 39 990.5 - 0.2 - - - - - - -
28/09:30am 5.0 WSW 10 48 990.9 - 0.2 - - - - - - -
28/09:00am 4.7 NNW 10 25 990.7 - 5.6 Rain - - - - - -
28/08:45am 5.4 SW 15 36 990.5 - 4.4 - - - - - - -
28/08:30am 6.8 NW 13 27 990.1 - 4.2 - - - - - - -
28/08:11am 6.8 NW 15 31 989.7 - 4.2 - - - - - - -
28/08:10am 6.8 N 11 31 989.8 - 4.2 - - - - - - -
28/08:02am 7.2 NNW 22 48 990.1 - 4.2 - - - - - - -
28/08:00am 7.7 NNE 8 19 990.1 - 4.2 - - - - - - -
28/07:30am 8.0 WNW 16 29 989.6 - 4.2 - - - - - - -
28/07:00am 7.9 NW 15 28 989.7 - 4.2 - - - - - - -
28/06:56am 7.9 NW 15 28 989.6 - 4.2 - - - - - - -
28/06:30am 7.4 WNW 8 26 989.9 - 4.2 - - - - - - -
28/06:00am 7.1 W 9 24 990.5 - 4.2 - - - - - - -
28/05:30am 7.4 WSW 10 21 990.3 - 4.2 - - - - - - -
28/05:00am 7.4 W 8 20 989.7 - 4.2 - - - - - - -
28/04:30am 7.4 WNW 25 36 989.9 - 4.0 - - - - - - -
28/04:00am 7.4 WNW 23 38 989.7 - 3.8 - - - - - - -
28/03:30am 8.0 NW 31 43 989.1 - 1.8 - - - - - - -
28/03:00am 9.4 NW 32 53 989.5 - 1.4 - - - - - - -
28/02:42am 9.0 NW 25 44 989.8 - 1.4 - - - - - - -
28/02:30am 8.5 NW 22 34 990.2 - 1.4 - - - - - - -
28/02:09am 8.2 NW 23 33 990.7 - 1.4 - - - - - - -
28/02:00am 8.3 NW 24 31 991.2 - 1.4 - - - - - - -
28/01:30am 8.0 NNW 24 35 991.9 - 1.4 - - - - - - -
28/01:00am 8.2 NW 24 34 993.2 - 1.4 - - - - - - -

Other Formats:

Comma delimited format used in spreadsheet applications
http://www.bom.gov.au/fwo/IDT60701/IDT60701.95986.axf

JavaScript Object Notation format (JSON) in row-major order
http://www.bom.gov.au/fwo/IDT60701/IDT60701.95986.json